Time;durP1;ratioP1;P1;durP2;ratioP2;P2;SDS_P1;SDS_P2;PMS_P1;PMS_P2;Temp;Humidity;BMP_temperature;BMP_pressure;BME280_temperature;BME280_humidity;BME280_pressure;Samples;Min_cycle;Max_cycle;Signal;HPM_P1;HPM_P2
2023/03/06 00:01:26;;;;;;;39.20;22.95;;;3.20;99.90;;;;;;5095750;28;20082;-63
2023/03/06 00:03:53;;;;;;;46.65;25.05;;;3.20;99.90;;;;;;5094671;28;20110;-65
2023/03/06 00:06:20;;;;;;;42.60;24.70;;;3.20;99.90;;;;;;5095873;28;20024;-63
2023/03/06 00:08:45;;;;;;;45.90;24.75;;;3.20;99.90;;;;;;5095486;28;20059;-63
2023/03/06 00:11:13;;;;;;;47.00;24.95;;;3.20;99.90;;;;;;5095605;28;20071;-63
2023/03/06 00:13:39;;;;;;;51.13;26.35;;;3.20;99.90;;;;;;5095225;28;20044;-63
2023/03/06 00:16:05;;;;;;;46.63;24.65;;;3.20;99.90;;;;;;5095366;28;20532;-63
2023/03/06 00:18:32;;;;;;;46.13;26.17;;;3.20;99.90;;;;;;5094177;28;20025;-63
2023/03/06 00:20:57;;;;;;;45.20;25.75;;;3.20;99.90;;;;;;5094325;28;20466;-63
2023/03/06 00:23:23;;;;;;;44.92;25.05;;;3.20;99.90;;;;;;5095097;28;20024;-64
2023/03/06 00:25:49;;;;;;;44.17;24.65;;;3.20;99.90;;;;;;5095207;28;20052;-63
2023/03/06 00:28:16;;;;;;;46.85;25.45;;;3.20;99.90;;;;;;5095143;28;20055;-63
2023/03/06 00:30:42;;;;;;;47.78;26.38;;;3.20;99.90;;;;;;5095108;28;20025;-63
2023/03/06 00:33:07;;;;;;;45.60;25.52;;;3.20;99.90;;;;;;5095107;28;20016;-63
2023/03/06 00:35:33;;;;;;;50.83;26.15;;;3.20;99.90;;;;;;5095151;28;20038;-63
2023/03/06 00:37:59;;;;;;;50.13;27.02;;;3.20;99.90;;;;;;5095148;28;20106;-63
2023/03/06 00:40:25;;;;;;;51.60;26.65;;;3.20;99.90;;;;;;5093622;28;20474;-63
2023/03/06 00:42:50;;;;;;;48.20;25.60;;;3.20;99.90;;;;;;5094864;28;20020;-63
2023/03/06 00:45:16;;;;;;;52.85;28.77;;;3.20;99.90;;;;;;5094736;28;20116;-63
2023/03/06 00:47:42;;;;;;;50.88;26.73;;;3.20;99.90;;;;;;5094685;28;20024;-63
2023/03/06 00:50:08;;;;;;;53.40;28.23;;;3.20;99.90;;;;;;5094687;28;20032;-63
2023/03/06 00:52:34;;;;;;;53.35;26.85;;;3.20;99.90;;;;;;5093607;28;20064;-63
2023/03/06 00:55:00;;;;;;;51.25;27.58;;;3.20;99.90;;;;;;5094582;28;20075;-63
2023/03/06 00:57:26;;;;;;;52.80;27.65;;;3.20;99.90;;;;;;5094242;28;20032;-64
2023/03/06 00:59:51;;;;;;;56.17;28.90;;;3.20;99.90;;;;;;5094161;28;20024;-63
2023/03/06 01:02:17;;;;;;;54.15;28.30;;;3.20;99.90;;;;;;5094349;28;20020;-64
2023/03/06 01:04:42;;;;;;;50.67;28.10;;;3.30;99.90;;;;;;5094192;28;20039;-64
2023/03/06 01:07:08;;;;;;;49.50;27.45;;;3.30;99.90;;;;;;5094364;28;20035;-63
2023/03/06 01:09:33;;;;;;;54.75;28.60;;;3.30;99.90;;;;;;5094332;28;20032;-63
2023/03/06 01:11:59;;;;;;;59.70;30.13;;;3.30;99.90;;;;;;5094331;28;20481;-64
2023/03/06 01:14:25;;;;;;;55.45;30.02;;;3.30;99.90;;;;;;5094013;28;20036;-64
2023/03/06 01:16:52;;;;;;;55.38;28.83;;;3.30;99.90;;;;;;5094184;28;20059;-63
2023/03/06 01:19:18;;;;;;;54.30;30.08;;;3.30;99.90;;;;;;5094056;28;20024;-63
2023/03/06 01:21:43;;;;;;;52.50;29.55;;;3.30;99.90;;;;;;5094049;28;20082;-63
2023/03/06 01:24:08;;;;;;;53.88;29.42;;;3.30;99.90;;;;;;5094207;28;20036;-64
2023/03/06 01:26:34;;;;;;;55.20;29.90;;;3.40;99.90;;;;;;5093838;28;20063;-63
2023/03/06 01:29:00;;;;;;;59.00;30.30;;;3.40;99.90;;;;;;5093893;28;20059;-63
2023/03/06 01:31:26;;;;;;;60.47;32.03;;;3.40;99.90;;;;;;5093981;28;20036;-64
2023/03/06 01:33:52;;;;;;;57.40;31.38;;;3.40;99.90;;;;;;5092914;28;20371;-63
2023/03/06 01:36:18;;;;;;;60.90;31.88;;;3.40;99.90;;;;;;5094078;28;20067;-63
2023/03/06 01:38:43;;;;;;;60.63;32.20;;;3.40;99.90;;;;;;5094007;28;20047;-63
2023/03/06 01:41:14;;;;;;;60.40;32.25;;;3.40;99.90;;;;;;5093724;28;20118;-64
2023/03/06 01:43:42;;;;;;;64.07;32.67;;;3.40;99.90;;;;;;5093667;28;20028;-63
2023/03/06 01:46:31;;;;;;;62.83;32.63;;;3.40;99.90;;;;;;5093635;28;20121;-64
2023/03/06 01:49:11;;;;;;;60.95;32.03;;;3.40;99.90;;;;;;5093566;28;20401;-64
2023/03/06 01:51:43;;;;;;;62.22;32.38;;;3.40;99.90;;;;;;5093650;28;20542;-63
2023/03/06 01:54:32;;;;;;;57.83;31.73;;;3.50;99.90;;;;;;5093700;28;20059;-63
2023/03/06 01:57:04;;;;;;;59.03;31.83;;;3.40;99.90;;;;;;5093260;28;20024;-64
2023/03/06 01:59:32;;;;;;;64.47;32.80;;;3.40;99.90;;;;;;5093689;28;20031;-63
2023/03/06 02:02:00;;;;;;;64.90;31.48;;;3.40;99.90;;;;;;5093325;28;20477;-64
2023/03/06 02:04:26;;;;;;;61.72;32.83;;;3.40;99.90;;;;;;5093715;28;20436;-64
2023/03/06 02:06:52;;;;;;;57.72;30.92;;;3.40;99.90;;;;;;5093584;28;20028;-64
2023/03/06 02:09:18;;;;;;;65.90;32.20;;;3.40;99.90;;;;;;5093223;28;20028;-63
2023/03/06 02:11:44;;;;;;;58.85;31.27;;;3.40;99.90;;;;;;5093332;28;20031;-63
2023/03/06 02:14:13;;;;;;;63.05;31.80;;;3.40;99.90;;;;;;5093008;28;20048;-63
2023/03/06 02:16:39;;;;;;;60.10;31.30;;;3.40;99.90;;;;;;5092361;28;20024;-64
2023/03/06 02:19:10;;;;;;;69.85;33.00;;;3.40;99.90;;;;;;5093194;28;20031;-63
2023/03/06 02:21:36;;;;;;;56.83;30.27;;;3.40;99.90;;;;;;5092340;28;20031;-63
2023/03/06 02:24:42;;;;;;;59.92;31.60;;;3.40;99.90;;;;;;5093297;28;20028;-64
2023/03/06 02:27:11;;;;;;;65.60;30.45;;;3.40;99.90;;;;;;5093094;28;20028;-63
2023/03/06 02:29:36;;;;;;;53.25;28.83;;;3.40;99.90;;;;;;5093074;28;20036;-63
2023/03/06 02:32:03;;;;;;;53.22;27.27;;;3.30;99.90;;;;;;5093196;28;20043;-63
2023/03/06 02:37:17;;;;;;;38.08;21.05;;;;;;;;;;5111226;27;20296;-63
2023/03/06 02:39:48;;;;;;;37.53;19.95;;;2.70;99.90;;;;;;5109948;28;20074;-63
2023/03/06 02:42:19;;;;;;;40.28;19.70;;;2.50;99.90;;;;;;5111305;28;20030;-63
2023/03/06 02:44:45;;;;;;;38.22;19.77;;;2.30;99.90;;;;;;5111178;28;20042;-63
2023/03/06 02:47:11;;;;;;;38.33;20.25;;;2.10;99.90;;;;;;5110818;28;20028;-63
2023/03/06 02:49:36;;;;;;;40.05;20.95;;;2.00;99.90;;;;;;5110661;28;20024;-63
2023/03/06 02:52:02;;;;;;;42.42;21.52;;;2.00;99.90;;;;;;5110905;28;20111;-63
2023/03/06 02:54:27;;;;;;;38.20;20.73;;;1.90;99.90;;;;;;5110752;28;20028;-64
2023/03/06 02:56:53;;;;;;;42.22;22.10;;;1.90;99.90;;;;;;5110656;28;20085;-63
2023/03/06 02:59:18;;;;;;;40.67;21.75;;;2.00;99.90;;;;;;5110403;28;20027;-63
2023/03/06 03:01:44;;;;;;;44.40;23.83;;;2.10;99.90;;;;;;5110847;28;20039;-63
2023/03/06 03:04:10;;;;;;;47.13;22.02;;;2.10;99.90;;;;;;5110623;28;20047;-63
2023/03/06 03:06:35;;;;;;;44.42;22.85;;;2.10;99.90;;;;;;5110569;28;20103;-63
2023/03/06 03:09:01;;;;;;;47.63;23.52;;;2.20;99.90;;;;;;5110610;28;20028;-63
2023/03/06 03:11:26;;;;;;;43.97;24.00;;;2.20;99.90;;;;;;5110497;28;20440;-64
2023/03/06 03:13:52;;;;;;;45.28;23.73;;;2.20;99.90;;;;;;5110486;28;20107;-63
2023/03/06 03:16:17;;;;;;;48.03;24.50;;;2.30;99.90;;;;;;5110302;28;20078;-63
2023/03/06 03:18:43;;;;;;;45.22;24.50;;;2.30;99.90;;;;;;5110502;28;20035;-63
2023/03/06 03:21:11;;;;;;;44.95;24.35;;;2.30;99.90;;;;;;5110341;28;20028;-63
2023/03/06 03:23:37;;;;;;;44.65;23.40;;;2.30;99.90;;;;;;5109283;28;20473;-63
2023/03/06 03:26:13;;;;;;;42.88;24.40;;;2.40;99.90;;;;;;5110266;28;20023;-63
2023/03/06 03:28:38;;;;;;;49.40;25.23;;;2.40;99.90;;;;;;5110132;28;20035;-63
2023/03/06 03:31:06;;;;;;;49.03;25.10;;;2.50;99.90;;;;;;5110260;28;20027;-63
2023/03/06 03:33:33;;;;;;;48.70;25.85;;;2.50;99.90;;;;;;5110272;28;20031;-63
2023/03/06 03:36:00;;;;;;;46.25;26.10;;;2.50;99.90;;;;;;5109840;28;20533;-63
2023/03/06 03:38:26;;;;;;;47.42;25.52;;;2.40;99.90;;;;;;5110067;28;20050;-64
2023/03/06 03:40:52;;;;;;;47.38;25.02;;;2.50;99.90;;;;;;5109985;28;20028;-63
2023/03/06 03:43:18;;;;;;;43.92;24.40;;;2.40;99.90;;;;;;5110065;28;20366;-63
2023/03/06 03:45:43;;;;;;;45.35;24.63;;;2.50;99.90;;;;;;5109872;28;20031;-63
2023/03/06 03:48:09;;;;;;;44.65;23.98;;;2.40;99.90;;;;;;5098746;28;20114;-63
2023/03/06 03:50:35;;;;;;;44.65;24.17;;;2.30;99.90;;;;;;5096231;28;20077;-63
2023/03/06 03:53:00;;;;;;;45.80;24.77;;;2.30;99.90;;;;;;5094981;28;20028;-63
2023/03/06 03:55:26;;;;;;;46.20;24.95;;;2.20;99.90;;;;;;5096092;28;20117;-63
2023/03/06 03:57:51;;;;;;;49.20;24.48;;;2.20;99.90;;;;;;5096069;28;20481;-63
2023/03/06 04:00:17;;;;;;;43.15;23.73;;;2.10;99.90;;;;;;5095957;28;20032;-63
2023/03/06 04:02:44;;;;;;;44.22;25.38;;;2.20;99.90;;;;;;5095888;28;20067;-63
2023/03/06 04:05:13;;;;;;;46.10;24.52;;;2.20;99.90;;;;;;5111816;27;20142;-63
2023/03/06 04:07:39;;;;;;;43.42;24.15;;;2.10;99.90;;;;;;5095873;28;20477;-64
2023/03/06 04:10:07;;;;;;;43.03;24.20;;;2.10;99.90;;;;;;5094673;28;20032;-63
2023/03/06 04:12:33;;;;;;;43.45;25.27;;;2.10;99.90;;;;;;5094621;28;20034;-63
2023/03/06 04:14:59;;;;;;;44.65;24.50;;;2.10;99.90;;;;;;5095783;28;20383;-64
2023/03/06 04:17:25;;;;;;;54.10;26.30;;;2.10;99.90;;;;;;5095811;28;20020;-63
2023/03/06 04:19:50;;;;;;;47.95;26.25;;;2.20;99.90;;;;;;5095858;28;20024;-63
2023/03/06 04:22:16;;;;;;;46.63;25.52;;;2.20;99.90;;;;;;5095571;28;20036;-63
2023/03/06 04:24:41;;;;;;;45.88;25.10;;;2.30;99.90;;;;;;5095527;28;20067;-63
2023/03/06 04:27:07;;;;;;;48.97;25.67;;;2.30;99.90;;;;;;5095666;28;20036;-63
2023/03/06 04:29:32;;;;;;;49.65;24.98;;;2.30;99.90;;;;;;5095437;28;20521;-63
2023/03/06 04:31:58;;;;;;;45.25;24.52;;;2.30;99.90;;;;;;5095531;28;20481;-63
2023/03/06 04:34:24;;;;;;;49.67;25.70;;;2.30;99.90;;;;;;5095460;28;20506;-63
2023/03/06 04:36:49;;;;;;;49.60;25.58;;;2.20;99.90;;;;;;5095012;28;20044;-63
2023/03/06 04:39:15;;;;;;;48.78;25.65;;;2.20;99.90;;;;;;5095164;28;20027;-63
2023/03/06 04:41:41;;;;;;;43.60;24.80;;;2.20;99.90;;;;;;5095441;28;20107;-63
2023/03/06 04:44:07;;;;;;;46.17;25.08;;;2.30;99.90;;;;;;5094005;28;20058;-63
2023/03/06 04:46:33;;;;;;;50.10;26.02;;;2.30;99.90;;;;;;5095135;28;20059;-64
2023/03/06 04:48:58;;;;;;;50.00;26.33;;;2.30;99.90;;;;;;5095075;28;20021;-63
2023/03/06 04:51:24;;;;;;;49.25;26.92;;;2.30;99.90;;;;;;5095032;28;20032;-63
2023/03/06 04:53:49;;;;;;;52.25;27.23;;;2.30;99.90;;;;;;5094860;28;20081;-63
2023/03/06 04:56:15;;;;;;;56.00;28.20;;;2.30;99.90;;;;;;5094788;28;20077;-63
2023/03/06 04:58:43;;;;;;;50.17;27.55;;;2.30;99.90;;;;;;5094135;28;20129;-63
2023/03/06 05:01:10;;;;;;;54.67;29.45;;;2.30;99.90;;;;;;5095002;28;20020;-63
2023/03/06 05:03:35;;;;;;;50.97;27.13;;;2.30;99.90;;;;;;5094732;28;20393;-63
2023/03/06 05:06:01;;;;;;;56.45;28.58;;;2.20;99.90;;;;;;5094903;28;20024;-63
2023/03/06 05:08:27;;;;;;;59.53;27.58;;;2.20;99.90;;;;;;5094686;28;20439;-65
2023/03/06 05:10:55;;;;;;;45.95;26.50;;;2.10;99.90;;;;;;5094727;28;20111;-63
2023/03/06 05:13:21;;;;;;;53.63;28.13;;;2.10;99.90;;;;;;5093355;28;20028;-63
2023/03/06 05:15:46;;;;;;;50.65;28.65;;;2.10;99.90;;;;;;5094416;28;20032;-63
2023/03/06 05:18:12;;;;;;;51.65;25.48;;;2.10;99.90;;;;;;5094465;28;20021;-63
2023/03/06 05:20:37;;;;;;;51.63;26.77;;;2.20;99.90;;;;;;5094448;28;20063;-63
2023/03/06 05:23:03;;;;;;;43.75;25.52;;;2.20;99.90;;;;;;5094468;28;20024;-63
2023/03/06 05:25:28;;;;;;;51.85;26.77;;;2.20;99.90;;;;;;5094206;28;20029;-63
2023/03/06 05:27:54;;;;;;;50.53;26.75;;;2.20;99.90;;;;;;5094417;28;20032;-63
2023/03/06 05:30:21;;;;;;;46.20;25.98;;;2.20;99.90;;;;;;5094219;28;20054;-63
2023/03/06 05:32:47;;;;;;;49.08;25.75;;;2.10;99.90;;;;;;5094191;28;20060;-63
2023/03/06 05:35:21;;;;;;;52.38;25.73;;;2.10;99.90;;;;;;5094156;28;20129;-63
2023/03/06 05:37:47;;;;;;;47.83;24.38;;;2.10;99.90;;;;;;5093930;28;20035;-63
2023/03/06 05:40:14;;;;;;;48.00;23.92;;;2.00;99.90;;;;;;5094331;28;20469;-63
2023/03/06 05:42:39;;;;;;;49.78;24.55;;;2.00;99.90;;;;;;5094248;28;20027;-63
2023/03/06 05:45:05;;;;;;;43.75;23.70;;;2.10;99.90;;;;;;5094279;28;20385;-63
2023/03/06 05:47:31;;;;;;;49.15;24.05;;;2.00;99.90;;;;;;5094061;28;20030;-63
2023/03/06 05:49:57;;;;;;;45.25;23.50;;;1.90;99.90;;;;;;5093980;28;20028;-64
2023/03/06 05:52:23;;;;;;;45.00;23.60;;;1.90;99.90;;;;;;5094018;28;20459;-63
2023/03/06 05:54:50;;;;;;;46.55;22.80;;;1.90;99.90;;;;;;5093722;28;20024;-63
2023/03/06 05:57:17;;;;;;;51.10;25.10;;;1.90;99.90;;;;;;5092593;28;20066;-63
2023/03/06 05:59:42;;;;;;;49.25;25.33;;;1.80;99.90;;;;;;5093996;28;20529;-63
2023/03/06 06:02:08;;;;;;;52.58;25.55;;;1.80;99.90;;;;;;5093734;28;20149;-63
2023/03/06 06:04:33;;;;;;;50.22;24.70;;;1.80;99.90;;;;;;5093657;28;20020;-63
2023/03/06 06:07:00;;;;;;;49.35;25.85;;;1.80;99.90;;;;;;5093727;28;20176;-63
2023/03/06 06:09:26;;;;;;;54.67;27.83;;;1.70;99.90;;;;;;5093678;28;20020;-63
2023/03/06 06:11:54;;;;;;;46.20;24.98;;;1.70;99.90;;;;;;5093310;28;20032;-63
2023/03/06 06:14:20;;;;;;;58.25;27.77;;;1.70;99.90;;;;;;5092279;28;20031;-63
2023/03/06 06:16:46;;;;;;;55.38;27.13;;;1.70;99.90;;;;;;5093385;28;20024;-63
2023/03/06 06:19:17;;;;;;;56.00;28.35;;;1.80;99.90;;;;;;5092212;28;20062;-63
2023/03/06 06:21:45;;;;;;;57.10;25.23;;;1.80;99.90;;;;;;5093317;28;20028;-63
2023/03/06 06:24:11;;;;;;;51.63;24.33;;;1.80;99.90;;;;;;5093536;28;20077;-63
2023/03/06 06:26:37;;;;;;;50.03;24.23;;;1.80;99.90;;;;;;5093396;28;20478;-63
2023/03/06 06:29:04;;;;;;;47.80;24.45;;;1.90;99.90;;;;;;5093276;28;20024;-63
2023/03/06 06:31:29;;;;;;;44.22;23.08;;;1.90;99.90;;;;;;5093474;28;20028;-63
2023/03/06 06:33:55;;;;;;;47.40;24.52;;;2.00;99.90;;;;;;5093340;28;20374;-63
2023/03/06 06:36:20;;;;;;;57.88;27.23;;;2.00;99.90;;;;;;5092952;28;20094;-62
2023/03/06 06:38:47;;;;;;;62.08;32.03;;;2.00;99.90;;;;;;5091970;28;20104;-63
2023/03/06 06:41:12;;;;;;;52.25;25.65;;;2.10;99.90;;;;;;5092258;28;20110;-63
2023/03/06 06:43:38;;;;;;;58.70;28.85;;;2.20;99.90;;;;;;5093130;28;20060;-63
2023/03/06 06:46:04;;;;;;;65.60;34.95;;;2.10;99.90;;;;;;5093111;28;20028;-63
2023/03/06 06:48:29;;;;;;;61.75;32.33;;;2.20;99.90;;;;;;5093339;28;20478;-63
2023/03/06 06:50:56;;;;;;;56.67;31.58;;;2.30;99.90;;;;;;5092970;28;20036;-63
2023/03/06 06:53:22;;;;;;;55.65;31.35;;;2.30;99.90;;;;;;5093025;28;20076;-63
2023/03/06 06:55:47;;;;;;;54.92;26.73;;;2.30;99.90;;;;;;5092808;28;20437;-62
2023/03/06 06:58:13;;;;;;;52.17;27.02;;;2.30;99.90;;;;;;5092909;28;20028;-63
2023/03/06 07:00:39;;;;;;;51.65;28.08;;;2.40;99.90;;;;;;5092904;28;20028;-63
2023/03/06 07:03:04;;;;;;;59.05;30.42;;;2.50;99.90;;;;;;5093027;28;20424;-63
2023/03/06 07:05:30;;;;;;;52.22;27.48;;;2.50;99.90;;;;;;5092920;28;20028;-63
2023/03/06 07:07:55;;;;;;;51.88;28.02;;;2.50;99.90;;;;;;5093169;28;20433;-63
2023/03/06 07:10:21;;;;;;;48.75;25.45;;;2.60;99.90;;;;;;5094179;28;20031;-63
2023/03/06 07:12:46;;;;;;;50.67;27.08;;;2.60;99.90;;;;;;5091245;28;20039;-63
2023/03/06 07:15:14;;;;;;;54.50;26.95;;;2.60;99.90;;;;;;5092283;28;20028;-63
2023/03/06 07:17:40;;;;;;;51.13;27.02;;;2.70;99.90;;;;;;5090510;28;20051;-64
2023/03/06 07:20:07;;;;;;;47.05;26.25;;;2.70;99.90;;;;;;5092160;28;20485;-64
2023/03/06 07:22:32;;;;;;;45.10;25.65;;;2.80;99.90;;;;;;5091220;28;20062;-64
2023/03/06 07:24:58;;;;;;;52.38;26.70;;;2.70;99.90;;;;;;5093371;28;20068;-64
2023/03/06 07:27:25;;;;;;;52.60;28.08;;;2.80;99.90;;;;;;5085579;28;20032;-63
2023/03/06 07:29:51;;;;;;;51.92;29.45;;;2.80;99.90;;;;;;5096394;28;20362;-64
2023/03/06 07:32:17;;;;;;;50.80;29.52;;;2.80;99.90;;;;;;5095857;28;20024;-64
2023/03/06 07:34:44;;;;;;;49.67;28.83;;;2.80;99.90;;;;;;5082258;28;20029;-64
2023/03/06 07:37:10;;;;;;;49.60;28.52;;;2.90;99.90;;;;;;5092888;28;20542;-64
2023/03/06 07:39:35;;;;;;;51.45;27.20;;;3.00;99.90;;;;;;5095601;28;20122;-63
2023/03/06 07:42:01;;;;;;;45.35;25.55;;;3.10;99.90;;;;;;5093585;28;20058;-63
2023/03/06 07:44:26;;;;;;;47.25;25.77;;;3.00;99.90;;;;;;5096486;28;20104;-66
2023/03/06 07:46:52;;;;;;;42.10;23.40;;;3.00;99.90;;;;;;5095713;28;20039;-66
2023/03/06 07:49:18;;;;;;;47.15;24.48;;;3.00;99.90;;;;;;5095752;28;20172;-66
2023/03/06 07:51:44;;;;;;;41.60;22.67;;;3.00;99.90;;;;;;5089605;28;20092;-67
2023/03/06 07:54:10;;;;;;;42.28;22.13;;;3.00;99.90;;;;;;5081174;28;20057;-67
2023/03/06 07:56:35;;;;;;;42.30;23.63;;;3.10;99.90;;;;;;5077268;28;20029;-64
2023/03/06 07:59:01;;;;;;;52.65;31.38;;;3.10;99.90;;;;;;5088856;28;20039;-66
2023/03/06 08:01:26;;;;;;;87.10;55.10;;;3.10;99.90;;;;;;5090811;28;20094;-64
2023/03/06 08:03:53;;;;;;;49.67;28.45;;;3.20;99.90;;;;;;5083557;28;20485;-69
2023/03/06 08:06:22;;;;;;;40.45;23.30;;;3.20;99.90;;;;;;5091186;28;20063;-68
2023/03/06 08:08:49;;;;;;;57.65;33.22;;;3.20;99.90;;;;;;5088632;28;20093;-68
2023/03/06 08:11:16;;;;;;;54.50;32.03;;;3.20;99.90;;;;;;5085729;28;20028;-68
2023/03/06 08:13:42;;;;;;;45.80;25.80;;;3.20;99.90;;;;;;5084486;28;20029;-69
2023/03/06 08:16:08;;;;;;;45.08;25.08;;;3.10;99.90;;;;;;5080528;28;20040;-68
2023/03/06 08:18:34;;;;;;;47.60;24.92;;;3.10;99.90;;;;;;5090281;28;20500;-64
2023/03/06 08:21:05;;;;;;;49.17;25.58;;;3.10;99.90;;;;;;5086545;28;20382;-67
2023/03/06 08:23:32;;;;;;;51.45;25.48;;;3.00;99.90;;;;;;5084338;28;20085;-68
2023/03/06 08:26:00;;;;;;;50.70;25.85;;;2.90;99.90;;;;;;5092755;28;20635;-67
2023/03/06 08:28:25;;;;;;;71.90;41.03;;;2.90;99.90;;;;;;5085264;28;20506;-67
2023/03/06 08:30:51;;;;;;;79.50;41.45;;;2.90;99.90;;;;;;5080397;28;20031;-67
2023/03/06 08:33:18;;;;;;;113.72;52.28;;;2.90;99.90;;;;;;5090827;28;20077;-68
2023/03/06 08:35:43;;;;;;;203.32;93.57;;;3.00;99.90;;;;;;5086544;28;20425;-65
2023/03/06 08:38:09;;;;;;;102.82;52.72;;;3.10;99.90;;;;;;5093143;28;20035;-65
2023/03/06 08:40:34;;;;;;;64.25;30.25;;;3.20;99.90;;;;;;5090026;28;20032;-65
2023/03/06 08:43:00;;;;;;;73.65;40.03;;;3.10;99.90;;;;;;5093639;28;20496;-66
2023/03/06 08:45:26;;;;;;;80.13;39.60;;;3.20;99.90;;;;;;5090721;28;20036;-64
2023/03/06 08:47:52;;;;;;;89.93;45.33;;;3.20;99.90;;;;;;5093644;28;20032;-66
2023/03/06 08:50:17;;;;;;;81.43;39.20;;;3.20;99.90;;;;;;5089669;28;20557;-67
2023/03/06 08:52:43;;;;;;;78.82;40.85;;;3.20;99.90;;;;;;5091975;28;20111;-64
2023/03/06 08:55:09;;;;;;;82.07;36.80;;;3.10;99.90;;;;;;5080578;28;20036;-69
2023/03/06 08:57:35;;;;;;;81.30;38.97;;;3.20;99.90;;;;;;5083389;28;20046;-68
2023/03/06 09:00:01;;;;;;;80.25;38.08;;;3.10;99.90;;;;;;5089301;28;20034;-67
2023/03/06 09:02:28;;;;;;;85.22;40.05;;;2.90;99.90;;;;;;5077375;28;20063;-67
2023/03/06 09:04:54;;;;;;;87.60;40.25;;;2.90;99.90;;;;;;5082377;28;20479;-65
2023/03/06 09:07:20;;;;;;;90.50;41.40;;;2.90;99.90;;;;;;5075169;28;20036;-65
2023/03/06 09:09:45;;;;;;;92.47;42.08;;;2.90;99.90;;;;;;5076299;28;20048;-66
2023/03/06 09:12:11;;;;;;;97.43;41.22;;;2.90;99.90;;;;;;5076629;28;20051;-66
2023/03/06 09:14:37;;;;;;;93.07;41.17;;;2.90;99.90;;;;;;5072155;28;20044;-69
2023/03/06 09:17:02;;;;;;;85.65;39.08;;;2.90;99.90;;;;;;5075617;28;20037;-69
2023/03/06 09:19:28;;;;;;;93.82;41.00;;;2.90;99.90;;;;;;5072352;28;20454;-67
2023/03/06 09:21:53;;;;;;;88.78;40.67;;;2.80;99.90;;;;;;5080344;28;20534;-65
2023/03/06 09:24:19;;;;;;;96.40;41.97;;;2.80;99.90;;;;;;5091794;28;20551;-65
2023/03/06 09:26:44;;;;;;;100.15;41.95;;;2.80;99.90;;;;;;5088433;28;20035;-69
2023/03/06 09:29:11;;;;;;;93.63;40.30;;;2.70;99.90;;;;;;5100123;28;20024;-64
2023/03/06 09:31:36;;;;;;;99.47;43.13;;;2.70;99.90;;;;;;5083699;28;20510;-65
2023/03/06 09:34:02;;;;;;;97.65;40.92;;;2.70;99.90;;;;;;5090234;28;20070;-66
2023/03/06 09:36:28;;;;;;;103.55;43.55;;;2.70;99.90;;;;;;5087667;28;20052;-66
2023/03/06 09:38:53;;;;;;;103.45;42.50;;;2.70;99.90;;;;;;5077632;28;20032;-65
2023/03/06 09:41:30;;;;;;;104.57;44.00;;;2.70;99.90;;;;;;5081876;28;20024;-68
2023/03/06 09:44:04;;;;;;;100.65;42.72;;;2.70;99.90;;;;;;5089660;28;20089;-66
2023/03/06 09:46:57;;;;;;;107.60;42.78;;;2.70;99.90;;;;;;5074381;28;20086;-67
2023/03/06 09:49:52;;;;;;;105.30;43.45;;;2.80;99.90;;;;;;5082760;28;21156;-67
2023/03/06 09:52:45;;;;;;;108.40;45.05;;;2.90;99.90;;;;;;5083383;28;20025;-65
2023/03/06 09:55:16;;;;;;;105.68;44.45;;;2.90;99.90;;;;;;5084908;28;20065;-66
2023/03/06 09:58:05;;;;;;;106.88;44.28;;;3.00;99.90;;;;;;5085194;28;20385;-65
2023/03/06 10:00:37;;;;;;;104.38;44.53;;;3.00;99.90;;;;;;5087699;28;20382;-65
2023/03/06 10:03:35;;;;;;;105.00;44.00;;;3.10;99.90;;;;;;5094999;28;20017;-64
2023/03/06 10:06:13;;;;;;;104.60;43.42;;;3.10;99.90;;;;;;5087022;28;20024;-67
2023/03/06 10:09:02;;;;;;;99.70;43.08;;;3.30;99.90;;;;;;5083689;28;20028;-66
2023/03/06 10:11:38;;;;;;;87.55;39.08;;;3.50;99.90;;;;;;5086167;28;20082;-67
2023/03/06 10:14:25;;;;;;;82.80;37.83;;;3.60;99.90;;;;;;5090866;28;20488;-65
2023/03/06 10:16:51;;;;;;;97.88;43.95;;;3.60;99.90;;;;;;5086655;28;20024;-66
2023/03/06 10:19:18;;;;;;;76.57;37.50;;;3.50;99.90;;;;;;5088159;28;20085;-66
2023/03/06 10:22:22;;;;;;;72.78;33.47;;;3.70;99.90;;;;;;5085028;28;20089;-64
2023/03/06 10:24:59;;;;;;;68.40;31.92;;;3.80;99.90;;;;;;5079115;28;20430;-67
2023/03/06 10:27:41;;;;;;;60.85;30.10;;;4.00;99.90;;;;;;5081181;28;20524;-63
2023/03/06 10:30:47;;;;;;;52.60;26.53;;;4.10;99.90;;;;;;5085111;28;20040;-65
2023/03/06 10:33:39;;;;;;;46.97;25.23;;;4.20;99.90;;;;;;5080298;28;20039;-65
2023/03/06 10:36:05;;;;;;;26.87;15.57;;;4.50;99.90;;;;;;5073415;28;20160;-66
2023/03/06 10:38:36;;;;;;;36.33;19.90;;;4.70;99.90;;;;;;5081029;28;20287;-67
2023/03/06 10:41:24;;;;;;;28.40;17.38;;;5.00;99.90;;;;;;5082799;28;20028;-67
2023/03/06 10:44:10;;;;;;;26.67;15.82;;;5.10;99.90;;;;;;5090412;28;20024;-65
2023/03/06 10:46:41;;;;;;;26.65;16.20;;;5.20;99.90;;;;;;5097728;28;20028;-65
2023/03/06 10:49:37;;;;;;;27.17;13.60;;;5.20;99.90;;;;;;5080156;28;20094;-67
2023/03/06 10:52:21;;;;;;;21.05;13.27;;;5.50;99.90;;;;;;5082953;28;20031;-66
2023/03/06 10:54:47;;;;;;;18.63;10.88;;;5.70;99.90;;;;;;5073946;28;20038;-65
2023/03/06 10:57:32;;;;;;;14.43;10.13;;;5.90;99.90;;;;;;5097515;28;20114;-68
2023/03/06 11:00:21;;;;;;;16.65;10.73;;;6.60;99.90;;;;;;5097659;28;20435;-66
2023/03/06 11:03:03;;;;;;;17.10;10.20;;;6.30;99.90;;;;;;5093054;28;20027;-66
2023/03/06 11:05:29;;;;;;;17.77;9.70;;;6.20;99.90;;;;;;5096930;28;20031;-66
2023/03/06 11:07:58;;;;;;;13.05;9.18;;;6.00;99.90;;;;;;5087221;28;20028;-68
2023/03/06 11:10:25;;;;;;;14.95;9.38;;;5.40;99.90;;;;;;5090071;28;20029;-67
2023/03/06 11:13:01;;;;;;;14.88;9.93;;;5.20;99.90;;;;;;5084520;28;20249;-67
2023/03/06 11:15:28;;;;;;;14.50;9.40;;;5.10;99.90;;;;;;5098322;28;20375;-70
2023/03/06 11:18:03;;;;;;;15.88;9.63;;;5.00;99.90;;;;;;5090512;28;20020;-67
2023/03/06 11:20:50;;;;;;;16.88;10.50;;;4.80;99.90;;;;;;5075891;28;20017;-68
2023/03/06 11:23:28;;;;;;;18.20;10.57;;;4.80;99.90;;;;;;5086966;28;20036;-66
2023/03/06 11:26:00;;;;;;;17.45;10.27;;;4.80;99.90;;;;;;5084789;28;20024;-66
2023/03/06 11:28:31;;;;;;;14.90;9.75;;;4.70;99.90;;;;;;5085186;28;20032;-66
2023/03/06 11:31:14;;;;;;;19.90;11.80;;;4.80;99.90;;;;;;5094514;28;20032;-67
2023/03/06 11:33:49;;;;;;;20.23;13.18;;;4.70;99.90;;;;;;5083111;28;20028;-67
2023/03/06 11:36:23;;;;;;;23.08;14.40;;;4.80;99.90;;;;;;5087289;28;20048;-66
2023/03/06 11:38:51;;;;;;;23.33;13.90;;;4.90;99.90;;;;;;5077043;28;20391;-68
2023/03/06 11:41:41;;;;;;;25.40;14.60;;;4.60;99.90;;;;;;5081615;28;20311;-67
2023/03/06 11:44:34;;;;;;;24.27;17.00;;;4.40;99.90;;;;;;5078457;28;20040;-66
2023/03/06 11:47:25;;;;;;;25.35;15.45;;;4.30;99.90;;;;;;5082869;28;20028;-67
2023/03/06 11:50:04;;;;;;;22.67;13.20;;;4.10;99.90;;;;;;5094227;28;20857;-68
2023/03/06 11:52:52;;;;;;;20.13;13.05;;;4.00;99.90;;;;;;5092636;28;20031;-70
2023/03/06 11:58:45;;;;;;;20.80;12.80;;;3.70;99.90;;;;;;5106442;27;20431;-67
2023/03/06 12:01:34;;;;;;;21.65;12.23;;;3.70;99.90;;;;;;5089788;28;20474;-65
2023/03/06 12:04:39;;;;;;;17.42;10.43;;;3.70;99.90;;;;;;5080448;28;20036;-65
2023/03/06 12:10:22;;;;;;;14.32;9.32;;;3.70;99.90;;;;;;5068767;28;20919;-65
2023/03/06 12:13:18;;;;;;;18.05;10.05;;;3.80;99.90;;;;;;5062148;28;20025;-65
2023/03/06 12:16:09;;;;;;;17.55;10.65;;;4.00;99.90;;;;;;5060958;28;20129;-66
2023/03/06 12:19:15;;;;;;;27.00;14.02;;;3.90;99.90;;;;;;5051016;28;20040;-66
2023/03/06 12:22:11;;;;;;;21.75;13.27;;;3.70;99.90;;;;;;5067228;28;20037;-65
2023/03/06 12:25:16;;;;;;;29.05;15.63;;;3.40;99.90;;;;;;5057719;28;20021;-66
2023/03/06 12:28:10;;;;;;;24.20;14.73;;;3.30;99.90;;;;;;5056005;28;20025;-70
2023/03/06 12:31:02;;;;;;;35.15;18.75;;;3.40;99.90;;;;;;5060982;28;20079;-68
2023/03/06 12:33:59;;;;;;;27.05;16.20;;;3.40;99.90;;;;;;5061333;28;20053;-66
2023/03/06 12:36:38;;;;;;;24.80;15.15;;;3.60;99.90;;;;;;5059526;28;20446;-68
2023/03/06 12:39:15;;;;;;;26.25;15.48;;;3.70;99.90;;;;;;5063516;28;20474;-66
2023/03/06 12:42:16;;;;;;;23.10;13.82;;;3.60;99.90;;;;;;5053538;28;20025;-68
2023/03/06 12:47:41;;;;;;;21.85;13.93;;;3.70;99.90;;;;;;5063591;28;20523;-66
2023/03/06 12:50:19;;;;;;;20.92;13.05;;;3.70;99.90;;;;;;5054404;28;20032;-65
2023/03/06 12:52:46;;;;;;;23.83;12.25;;;3.70;99.90;;;;;;5046958;28;20036;-67
2023/03/06 12:55:16;;;;;;;23.60;13.48;;;3.70;99.90;;;;;;5040919;28;20384;-67
2023/03/06 12:57:42;;;;;;;20.85;12.80;;;3.70;99.90;;;;;;5030043;28;20475;-65
2023/03/06 13:00:30;;;;;;;22.92;11.93;;;3.70;99.90;;;;;;5036731;28;20021;-68
2023/03/06 13:03:23;;;;;;;22.83;12.18;;;3.70;99.90;;;;;;5041535;28;20379;-66